sensor_id;sensor_type;location;lat;lon;timestamp;P1;durP1;ratioP1;P2;durP2;ratioP2
58758;SDS011;46777;47.482;19.054;2022-10-16T00:01:57;12.70;;;10.65;;
58758;SDS011;46777;47.482;19.054;2022-10-16T00:04:41;12.73;;;11.30;;
58758;SDS011;46777;47.482;19.054;2022-10-16T00:07:25;13.40;;;10.85;;
58758;SDS011;46777;47.482;19.054;2022-10-16T00:10:11;11.77;;;10.38;;
58758;SDS011;46777;47.482;19.054;2022-10-16T00:12:55;11.70;;;10.55;;
58758;SDS011;46777;47.482;19.054;2022-10-16T00:15:39;11.90;;;10.70;;
58758;SDS011;46777;47.482;19.054;2022-10-16T00:18:23;11.90;;;10.25;;
58758;SDS011;46777;47.482;19.054;2022-10-16T00:21:19;11.40;;;10.00;;
58758;SDS011;46777;47.482;19.054;2022-10-16T00:24:05;11.43;;;10.20;;
58758;SDS011;46777;47.482;19.054;2022-10-16T00:26:50;11.23;;;10.02;;
58758;SDS011;46777;47.482;19.054;2022-10-16T00:29:34;11.57;;;10.35;;
58758;SDS011;46777;47.482;19.054;2022-10-16T00:32:19;13.63;;;10.60;;
58758;SDS011;46777;47.482;19.054;2022-10-16T00:35:04;12.52;;;9.68;;
58758;SDS011;46777;47.482;19.054;2022-10-16T00:37:48;12.65;;;10.05;;
58758;SDS011;46777;47.482;19.054;2022-10-16T00:40:33;11.43;;;10.23;;
58758;SDS011;46777;47.482;19.054;2022-10-16T00:46:31;13.10;;;10.50;;
58758;SDS011;46777;47.482;19.054;2022-10-16T00:49:19;12.43;;;10.63;;
58758;SDS011;46777;47.482;19.054;2022-10-16T00:52:03;14.65;;;10.15;;
58758;SDS011;46777;47.482;19.054;2022-10-16T00:54:48;11.35;;;10.13;;
58758;SDS011;46777;47.482;19.054;2022-10-16T00:57:33;11.20;;;9.65;;
58758;SDS011;46777;47.482;19.054;2022-10-16T01:00:19;12.07;;;9.88;;
58758;SDS011;46777;47.482;19.054;2022-10-16T01:03:21;11.95;;;10.73;;
58758;SDS011;46777;47.482;19.054;2022-10-16T01:06:11;12.15;;;10.13;;
58758;SDS011;46777;47.482;19.054;2022-10-16T01:09:17;10.35;;;9.35;;
58758;SDS011;46777;47.482;19.054;2022-10-16T01:12:17;12.13;;;10.00;;
58758;SDS011;46777;47.482;19.054;2022-10-16T01:20:54;11.68;;;10.00;;
58758;SDS011;46777;47.482;19.054;2022-10-16T01:26:46;11.65;;;10.48;;
58758;SDS011;46777;47.482;19.054;2022-10-16T01:29:34;11.43;;;10.23;;
58758;SDS011;46777;47.482;19.054;2022-10-16T01:32:36;11.38;;;10.27;;
58758;SDS011;46777;47.482;19.054;2022-10-16T01:35:23;12.07;;;10.75;;
58758;SDS011;46777;47.482;19.054;2022-10-16T01:38:15;11.43;;;10.10;;
58758;SDS011;46777;47.482;19.054;2022-10-16T01:41:01;14.93;;;10.63;;
58758;SDS011;46777;47.482;19.054;2022-10-16T01:43:53;10.45;;;9.45;;
58758;SDS011;46777;47.482;19.054;2022-10-16T01:46:41;11.77;;;9.73;;
58758;SDS011;46777;47.482;19.054;2022-10-16T01:49:27;13.77;;;10.80;;
58758;SDS011;46777;47.482;19.054;2022-10-16T01:52:15;11.23;;;10.13;;
58758;SDS011;46777;47.482;19.054;2022-10-16T01:55:00;13.40;;;9.75;;
58758;SDS011;46777;47.482;19.054;2022-10-16T01:57:46;11.25;;;10.15;;
58758;SDS011;46777;47.482;19.054;2022-10-16T02:00:31;12.77;;;10.02;;
58758;SDS011;46777;47.482;19.054;2022-10-16T02:03:16;12.00;;;10.80;;
58758;SDS011;46777;47.482;19.054;2022-10-16T02:06:02;11.82;;;10.02;;
58758;SDS011;46777;47.482;19.054;2022-10-16T02:08:46;10.80;;;9.55;;
58758;SDS011;46777;47.482;19.054;2022-10-16T02:11:31;13.55;;;11.00;;
58758;SDS011;46777;47.482;19.054;2022-10-16T02:14:15;11.68;;;10.20;;
58758;SDS011;46777;47.482;19.054;2022-10-16T02:17:00;10.98;;;9.85;;
58758;SDS011;46777;47.482;19.054;2022-10-16T02:19:44;10.60;;;9.30;;
58758;SDS011;46777;47.482;19.054;2022-10-16T02:22:32;11.75;;;10.00;;
58758;SDS011;46777;47.482;19.054;2022-10-16T02:25:33;11.93;;;10.52;;
58758;SDS011;46777;47.482;19.054;2022-10-16T02:31:03;12.05;;;9.93;;
58758;SDS011;46777;47.482;19.054;2022-10-16T02:33:48;13.18;;;9.82;;
58758;SDS011;46777;47.482;19.054;2022-10-16T02:36:35;11.35;;;9.63;;
58758;SDS011;46777;47.482;19.054;2022-10-16T02:39:20;11.23;;;9.88;;
58758;SDS011;46777;47.482;19.054;2022-10-16T02:42:06;11.32;;;10.23;;
58758;SDS011;46777;47.482;19.054;2022-10-16T02:44:53;11.73;;;10.02;;
58758;SDS011;46777;47.482;19.054;2022-10-16T02:47:37;11.40;;;10.25;;
58758;SDS011;46777;47.482;19.054;2022-10-16T02:50:22;12.27;;;10.82;;
58758;SDS011;46777;47.482;19.054;2022-10-16T02:53:06;12.73;;;11.30;;
58758;SDS011;46777;47.482;19.054;2022-10-16T02:55:50;11.07;;;9.98;;
58758;SDS011;46777;47.482;19.054;2022-10-16T02:58:35;12.10;;;10.90;;
58758;SDS011;46777;47.482;19.054;2022-10-16T03:01:19;11.73;;;10.18;;
58758;SDS011;46777;47.482;19.054;2022-10-16T03:04:03;11.88;;;10.68;;
58758;SDS011;46777;47.482;19.054;2022-10-16T03:06:47;14.80;;;11.32;;
58758;SDS011;46777;47.482;19.054;2022-10-16T03:09:32;12.70;;;11.50;;
58758;SDS011;46777;47.482;19.054;2022-10-16T03:12:16;11.90;;;10.27;;
58758;SDS011;46777;47.482;19.054;2022-10-16T03:15:00;11.73;;;10.50;;
58758;SDS011;46777;47.482;19.054;2022-10-16T03:17:45;12.43;;;10.75;;
58758;SDS011;46777;47.482;19.054;2022-10-16T03:20:29;13.77;;;11.05;;
58758;SDS011;46777;47.482;19.054;2022-10-16T03:23:13;13.45;;;11.60;;
58758;SDS011;46777;47.482;19.054;2022-10-16T03:25:58;12.70;;;11.52;;
58758;SDS011;46777;47.482;19.054;2022-10-16T03:28:42;11.68;;;10.48;;
58758;SDS011;46777;47.482;19.054;2022-10-16T03:31:27;12.32;;;10.55;;
58758;SDS011;46777;47.482;19.054;2022-10-16T03:34:11;13.60;;;11.23;;
58758;SDS011;46777;47.482;19.054;2022-10-16T03:36:55;12.98;;;11.68;;
58758;SDS011;46777;47.482;19.054;2022-10-16T03:39:39;13.13;;;11.82;;
58758;SDS011;46777;47.482;19.054;2022-10-16T03:42:24;14.20;;;11.77;;
58758;SDS011;46777;47.482;19.054;2022-10-16T03:45:08;12.63;;;11.30;;
58758;SDS011;46777;47.482;19.054;2022-10-16T03:47:53;12.90;;;11.68;;
58758;SDS011;46777;47.482;19.054;2022-10-16T03:50:37;12.98;;;11.77;;
58758;SDS011;46777;47.482;19.054;2022-10-16T03:53:21;11.55;;;10.45;;
58758;SDS011;46777;47.482;19.054;2022-10-16T03:56:06;12.93;;;10.63;;
58758;SDS011;46777;47.482;19.054;2022-10-16T03:58:50;12.70;;;11.32;;
58758;SDS011;46777;47.482;19.054;2022-10-16T04:01:34;12.73;;;11.18;;
58758;SDS011;46777;47.482;19.054;2022-10-16T04:04:18;12.40;;;10.70;;
58758;SDS011;46777;47.482;19.054;2022-10-16T04:07:02;12.38;;;11.10;;
58758;SDS011;46777;47.482;19.054;2022-10-16T04:09:47;12.75;;;11.43;;
58758;SDS011;46777;47.482;19.054;2022-10-16T04:12:31;11.95;;;10.75;;
58758;SDS011;46777;47.482;19.054;2022-10-16T04:15:15;12.27;;;11.00;;
58758;SDS011;46777;47.482;19.054;2022-10-16T04:17:59;11.45;;;10.30;;
58758;SDS011;46777;47.482;19.054;2022-10-16T04:20:43;12.43;;;10.32;;
58758;SDS011;46777;47.482;19.054;2022-10-16T04:23:27;14.05;;;11.82;;
58758;SDS011;46777;47.482;19.054;2022-10-16T04:26:12;13.48;;;12.07;;
58758;SDS011;46777;47.482;19.054;2022-10-16T04:28:56;12.95;;;11.55;;
58758;SDS011;46777;47.482;19.054;2022-10-16T04:31:40;13.13;;;11.82;;
58758;SDS011;46777;47.482;19.054;2022-10-16T04:34:25;12.07;;;10.82;;
58758;SDS011;46777;47.482;19.054;2022-10-16T04:37:09;14.27;;;12.68;;
58758;SDS011;46777;47.482;19.054;2022-10-16T04:39:53;13.05;;;11.82;;
58758;SDS011;46777;47.482;19.054;2022-10-16T04:42:38;13.05;;;11.75;;
58758;SDS011;46777;47.482;19.054;2022-10-16T04:45:23;12.63;;;11.43;;
58758;SDS011;46777;47.482;19.054;2022-10-16T04:48:07;13.05;;;11.18;;
58758;SDS011;46777;47.482;19.054;2022-10-16T04:50:51;13.07;;;11.77;;
58758;SDS011;46777;47.482;19.054;2022-10-16T04:53:35;13.23;;;11.93;;
58758;SDS011;46777;47.482;19.054;2022-10-16T04:56:20;13.30;;;11.77;;
58758;SDS011;46777;47.482;19.054;2022-10-16T04:59:05;13.50;;;12.10;;
58758;SDS011;46777;47.482;19.054;2022-10-16T05:01:50;13.07;;;11.15;;
58758;SDS011;46777;47.482;19.054;2022-10-16T05:04:34;12.95;;;11.48;;
58758;SDS011;46777;47.482;19.054;2022-10-16T05:07:18;13.07;;;11.77;;
58758;SDS011;46777;47.482;19.054;2022-10-16T05:10:03;12.98;;;11.77;;
58758;SDS011;46777;47.482;19.054;2022-10-16T05:12:47;12.13;;;10.95;;
58758;SDS011;46777;47.482;19.054;2022-10-16T05:15:31;13.57;;;11.48;;
58758;SDS011;46777;47.482;19.054;2022-10-16T05:18:15;12.68;;;11.38;;
58758;SDS011;46777;47.482;19.054;2022-10-16T05:21:00;14.13;;;12.73;;
58758;SDS011;46777;47.482;19.054;2022-10-16T05:23:44;12.30;;;11.07;;
58758;SDS011;46777;47.482;19.054;2022-10-16T05:26:29;12.40;;;11.20;;
58758;SDS011;46777;47.482;19.054;2022-10-16T05:29:13;12.93;;;11.55;;
58758;SDS011;46777;47.482;19.054;2022-10-16T05:31:58;11.75;;;10.65;;
58758;SDS011;46777;47.482;19.054;2022-10-16T05:34:42;11.98;;;10.88;;
58758;SDS011;46777;47.482;19.054;2022-10-16T05:37:27;12.50;;;11.30;;
58758;SDS011;46777;47.482;19.054;2022-10-16T05:40:11;12.48;;;11.18;;
58758;SDS011;46777;47.482;19.054;2022-10-16T05:42:56;13.63;;;10.95;;
58758;SDS011;46777;47.482;19.054;2022-10-16T05:45:41;12.50;;;11.32;;
58758;SDS011;46777;47.482;19.054;2022-10-16T05:48:25;14.02;;;11.23;;
58758;SDS011;46777;47.482;19.054;2022-10-16T05:51:10;12.30;;;11.10;;
58758;SDS011;46777;47.482;19.054;2022-10-16T05:53:55;11.95;;;10.75;;
58758;SDS011;46777;47.482;19.054;2022-10-16T05:56:39;12.90;;;11.43;;
58758;SDS011;46777;47.482;19.054;2022-10-16T05:59:24;12.90;;;11.63;;
58758;SDS011;46777;47.482;19.054;2022-10-16T06:02:14;13.07;;;11.20;;
58758;SDS011;46777;47.482;19.054;2022-10-16T06:04:59;13.90;;;12.55;;
58758;SDS011;46777;47.482;19.054;2022-10-16T06:07:43;12.88;;;11.57;;
58758;SDS011;46777;47.482;19.054;2022-10-16T06:10:27;13.40;;;11.88;;
58758;SDS011;46777;47.482;19.054;2022-10-16T06:13:13;12.82;;;11.52;;
58758;SDS011;46777;47.482;19.054;2022-10-16T06:15:59;12.82;;;10.80;;
58758;SDS011;46777;47.482;19.054;2022-10-16T06:18:43;13.57;;;12.10;;
58758;SDS011;46777;47.482;19.054;2022-10-16T06:21:28;13.77;;;12.38;;
58758;SDS011;46777;47.482;19.054;2022-10-16T06:24:12;12.70;;;11.40;;
58758;SDS011;46777;47.482;19.054;2022-10-16T06:26:57;12.73;;;11.40;;
58758;SDS011;46777;47.482;19.054;2022-10-16T06:29:41;13.05;;;11.68;;
58758;SDS011;46777;47.482;19.054;2022-10-16T06:32:27;16.02;;;12.35;;
58758;SDS011;46777;47.482;19.054;2022-10-16T06:35:11;13.45;;;12.15;;
58758;SDS011;46777;47.482;19.054;2022-10-16T06:37:55;13.50;;;12.20;;
58758;SDS011;46777;47.482;19.054;2022-10-16T06:40:39;14.00;;;12.60;;
58758;SDS011;46777;47.482;19.054;2022-10-16T06:43:24;14.23;;;12.73;;
58758;SDS011;46777;47.482;19.054;2022-10-16T06:46:09;13.23;;;11.80;;
58758;SDS011;46777;47.482;19.054;2022-10-16T06:48:54;13.48;;;12.07;;
58758;SDS011;46777;47.482;19.054;2022-10-16T06:51:38;13.50;;;12.02;;
58758;SDS011;46777;47.482;19.054;2022-10-16T06:54:25;13.35;;;11.95;;
58758;SDS011;46777;47.482;19.054;2022-10-16T06:57:09;13.40;;;11.82;;
58758;SDS011;46777;47.482;19.054;2022-10-16T06:59:53;13.30;;;12.00;;
58758;SDS011;46777;47.482;19.054;2022-10-16T07:02:38;14.07;;;11.95;;
58758;SDS011;46777;47.482;19.054;2022-10-16T07:05:22;13.68;;;11.82;;
58758;SDS011;46777;47.482;19.054;2022-10-16T07:08:06;14.20;;;11.20;;
58758;SDS011;46777;47.482;19.054;2022-10-16T07:10:57;12.27;;;11.00;;
58758;SDS011;46777;47.482;19.054;2022-10-16T07:13:42;12.10;;;10.90;;
58758;SDS011;46777;47.482;19.054;2022-10-16T07:16:28;13.80;;;11.55;;
58758;SDS011;46777;47.482;19.054;2022-10-16T07:19:12;12.23;;;10.95;;
58758;SDS011;46777;47.482;19.054;2022-10-16T07:21:58;13.18;;;10.52;;
58758;SDS011;46777;47.482;19.054;2022-10-16T07:24:43;12.88;;;11.10;;
58758;SDS011;46777;47.482;19.054;2022-10-16T07:27:28;14.82;;;11.73;;
58758;SDS011;46777;47.482;19.054;2022-10-16T07:30:12;14.35;;;11.48;;
58758;SDS011;46777;47.482;19.054;2022-10-16T07:32:56;12.80;;;11.50;;
58758;SDS011;46777;47.482;19.054;2022-10-16T07:35:53;12.38;;;11.15;;
58758;SDS011;46777;47.482;19.054;2022-10-16T07:38:38;15.25;;;11.30;;
58758;SDS011;46777;47.482;19.054;2022-10-16T07:41:22;12.27;;;10.98;;
58758;SDS011;46777;47.482;19.054;2022-10-16T07:44:06;13.63;;;10.90;;
58758;SDS011;46777;47.482;19.054;2022-10-16T07:46:51;12.68;;;11.38;;
58758;SDS011;46777;47.482;19.054;2022-10-16T07:49:35;12.77;;;11.27;;
58758;SDS011;46777;47.482;19.054;2022-10-16T07:52:20;12.63;;;11.32;;
58758;SDS011;46777;47.482;19.054;2022-10-16T07:55:04;12.75;;;11.38;;
58758;SDS011;46777;47.482;19.054;2022-10-16T07:57:49;13.38;;;12.13;;
58758;SDS011;46777;47.482;19.054;2022-10-16T08:00:33;13.80;;;11.90;;
58758;SDS011;46777;47.482;19.054;2022-10-16T08:03:17;13.50;;;11.70;;
58758;SDS011;46777;47.482;19.054;2022-10-16T08:06:01;13.60;;;12.18;;
58758;SDS011;46777;47.482;19.054;2022-10-16T08:08:46;12.30;;;10.80;;
58758;SDS011;46777;47.482;19.054;2022-10-16T08:11:31;12.90;;;11.60;;
58758;SDS011;46777;47.482;19.054;2022-10-16T08:14:16;13.43;;;11.95;;
58758;SDS011;46777;47.482;19.054;2022-10-16T08:17:00;13.60;;;12.35;;
58758;SDS011;46777;47.482;19.054;2022-10-16T08:19:46;13.98;;;12.52;;
58758;SDS011;46777;47.482;19.054;2022-10-16T08:22:31;12.90;;;11.70;;
58758;SDS011;46777;47.482;19.054;2022-10-16T08:25:15;13.93;;;12.52;;
58758;SDS011;46777;47.482;19.054;2022-10-16T08:27:59;14.60;;;12.48;;
58758;SDS011;46777;47.482;19.054;2022-10-16T08:30:44;13.18;;;11.88;;
58758;SDS011;46777;47.482;19.054;2022-10-16T08:33:28;13.60;;;12.10;;
58758;SDS011;46777;47.482;19.054;2022-10-16T08:36:12;13.27;;;11.85;;
58758;SDS011;46777;47.482;19.054;2022-10-16T08:38:57;14.07;;;12.32;;
58758;SDS011;46777;47.482;19.054;2022-10-16T08:50:38;13.35;;;12.02;;
58758;SDS011;46777;47.482;19.054;2022-10-16T08:53:24;12.93;;;11.63;;
58758;SDS011;46777;47.482;19.054;2022-10-16T08:56:10;13.88;;;11.30;;
58758;SDS011;46777;47.482;19.054;2022-10-16T08:58:55;19.98;;;14.38;;
58758;SDS011;46777;47.482;19.054;2022-10-16T09:01:43;13.50;;;11.50;;
58758;SDS011;46777;47.482;19.054;2022-10-16T09:07:21;13.50;;;11.52;;
58758;SDS011;46777;47.482;19.054;2022-10-16T09:12:55;12.70;;;11.20;;
58758;SDS011;46777;47.482;19.054;2022-10-16T09:15:50;12.00;;;10.85;;
58758;SDS011;46777;47.482;19.054;2022-10-16T09:18:54;12.18;;;10.88;;
58758;SDS011;46777;47.482;19.054;2022-10-16T09:21:41;14.57;;;12.23;;
58758;SDS011;46777;47.482;19.054;2022-10-16T09:24:26;13.82;;;11.38;;
58758;SDS011;46777;47.482;19.054;2022-10-16T09:27:11;12.00;;;10.80;;
58758;SDS011;46777;47.482;19.054;2022-10-16T09:29:56;12.55;;;11.32;;
58758;SDS011;46777;47.482;19.054;2022-10-16T09:32:40;11.52;;;10.38;;
58758;SDS011;46777;47.482;19.054;2022-10-16T09:35:27;12.43;;;11.25;;
58758;SDS011;46777;47.482;19.054;2022-10-16T09:38:26;12.65;;;11.35;;
58758;SDS011;46777;47.482;19.054;2022-10-16T09:43:58;13.07;;;10.30;;
58758;SDS011;46777;47.482;19.054;2022-10-16T09:46:43;11.55;;;10.32;;
58758;SDS011;46777;47.482;19.054;2022-10-16T09:49:27;11.60;;;10.52;;
58758;SDS011;46777;47.482;19.054;2022-10-16T09:52:13;12.10;;;10.70;;
58758;SDS011;46777;47.482;19.054;2022-10-16T09:54:58;11.40;;;10.30;;
58758;SDS011;46777;47.482;19.054;2022-10-16T09:57:50;11.30;;;10.20;;
58758;SDS011;46777;47.482;19.054;2022-10-16T10:00:34;11.63;;;10.63;;
58758;SDS011;46777;47.482;19.054;2022-10-16T10:06:25;11.43;;;10.32;;
58758;SDS011;46777;47.482;19.054;2022-10-16T10:09:26;12.82;;;10.00;;
58758;SDS011;46777;47.482;19.054;2022-10-16T10:12:19;11.48;;;10.27;;
58758;SDS011;46777;47.482;19.054;2022-10-16T10:15:04;11.70;;;10.50;;
58758;SDS011;46777;47.482;19.054;2022-10-16T10:17:51;12.00;;;10.07;;
58758;SDS011;46777;47.482;19.054;2022-10-16T10:20:35;10.63;;;9.65;;
58758;SDS011;46777;47.482;19.054;2022-10-16T10:23:25;10.32;;;9.32;;
58758;SDS011;46777;47.482;19.054;2022-10-16T10:26:18;9.82;;;8.82;;
58758;SDS011;46777;47.482;19.054;2022-10-16T10:29:23;9.52;;;8.50;;
58758;SDS011;46777;47.482;19.054;2022-10-16T10:32:33;9.65;;;8.65;;
58758;SDS011;46777;47.482;19.054;2022-10-16T10:35:25;10.00;;;9.10;;
58758;SDS011;46777;47.482;19.054;2022-10-16T10:46:54;8.95;;;7.53;;
58758;SDS011;46777;47.482;19.054;2022-10-16T10:52:52;7.93;;;7.13;;
58758;SDS011;46777;47.482;19.054;2022-10-16T10:58:38;9.07;;;7.70;;
58758;SDS011;46777;47.482;19.054;2022-10-16T11:07:28;8.93;;;7.70;;
58758;SDS011;46777;47.482;19.054;2022-10-16T11:10:18;8.27;;;7.47;;
58758;SDS011;46777;47.482;19.054;2022-10-16T11:13:20;8.88;;;7.43;;
58758;SDS011;46777;47.482;19.054;2022-10-16T11:16:12;8.85;;;7.40;;
58758;SDS011;46777;47.482;19.054;2022-10-16T11:18:59;8.40;;;7.55;;
58758;SDS011;46777;47.482;19.054;2022-10-16T11:21:51;7.80;;;7.00;;
58758;SDS011;46777;47.482;19.054;2022-10-16T11:27:40;8.73;;;7.32;;
58758;SDS011;46777;47.482;19.054;2022-10-16T11:30:34;8.18;;;7.35;;
58758;SDS011;46777;47.482;19.054;2022-10-16T11:33:24;9.10;;;7.53;;
58758;SDS011;46777;47.482;19.054;2022-10-16T11:36:34;9.38;;;7.40;;
58758;SDS011;46777;47.482;19.054;2022-10-16T11:39:28;7.75;;;7.05;;
58758;SDS011;46777;47.482;19.054;2022-10-16T11:45:23;8.60;;;7.68;;
58758;SDS011;46777;47.482;19.054;2022-10-16T11:50:54;8.05;;;6.85;;
58758;SDS011;46777;47.482;19.054;2022-10-16T11:56:27;7.97;;;6.78;;
58758;SDS011;46777;47.482;19.054;2022-10-16T11:59:22;9.77;;;6.93;;
58758;SDS011;46777;47.482;19.054;2022-10-16T12:02:20;7.57;;;6.85;;
58758;SDS011;46777;47.482;19.054;2022-10-16T12:08:01;8.95;;;7.00;;
58758;SDS011;46777;47.482;19.054;2022-10-16T12:10:47;7.75;;;6.38;;
58758;SDS011;46777;47.482;19.054;2022-10-16T12:13:40;7.93;;;7.13;;
58758;SDS011;46777;47.482;19.054;2022-10-16T12:16:25;8.00;;;6.82;;
58758;SDS011;46777;47.482;19.054;2022-10-16T12:19:11;6.90;;;6.22;;
58758;SDS011;46777;47.482;19.054;2022-10-16T12:21:56;7.38;;;6.68;;
58758;SDS011;46777;47.482;19.054;2022-10-16T12:24:42;6.80;;;6.18;;
58758;SDS011;46777;47.482;19.054;2022-10-16T12:27:30;7.85;;;6.50;;
58758;SDS011;46777;47.482;19.054;2022-10-16T12:30:19;7.22;;;6.63;;
58758;SDS011;46777;47.482;19.054;2022-10-16T12:35:48;8.75;;;6.60;;
58758;SDS011;46777;47.482;19.054;2022-10-16T12:38:36;8.25;;;7.45;;
58758;SDS011;46777;47.482;19.054;2022-10-16T12:44:24;7.35;;;6.22;;
58758;SDS011;46777;47.482;19.054;2022-10-16T12:47:24;6.85;;;6.25;;
58758;SDS011;46777;47.482;19.054;2022-10-16T12:50:33;7.15;;;6.55;;
58758;SDS011;46777;47.482;19.054;2022-10-16T12:53:19;7.35;;;6.72;;
58758;SDS011;46777;47.482;19.054;2022-10-16T12:56:24;7.03;;;6.43;;
58758;SDS011;46777;47.482;19.054;2022-10-16T13:04:50;7.63;;;6.93;;
58758;SDS011;46777;47.482;19.054;2022-10-16T13:07:41;8.15;;;6.88;;
58758;SDS011;46777;47.482;19.054;2022-10-16T13:10:40;7.03;;;6.32;;
58758;SDS011;46777;47.482;19.054;2022-10-16T13:22:15;7.63;;;6.90;;
58758;SDS011;46777;47.482;19.054;2022-10-16T13:25:17;7.63;;;7.03;;
58758;SDS011;46777;47.482;19.054;2022-10-16T13:28:08;8.25;;;7.45;;
58758;SDS011;46777;47.482;19.054;2022-10-16T13:30:53;8.35;;;7.63;;
58758;SDS011;46777;47.482;19.054;2022-10-16T13:33:39;7.18;;;6.68;;
58758;SDS011;46777;47.482;19.054;2022-10-16T13:36:25;7.78;;;7.07;;
58758;SDS011;46777;47.482;19.054;2022-10-16T13:39:14;7.03;;;6.43;;
58758;SDS011;46777;47.482;19.054;2022-10-16T13:44:47;7.35;;;6.43;;
58758;SDS011;46777;47.482;19.054;2022-10-16T13:47:32;7.18;;;6.57;;
58758;SDS011;46777;47.482;19.054;2022-10-16T13:50:18;8.90;;;6.78;;
58758;SDS011;46777;47.482;19.054;2022-10-16T13:53:03;6.25;;;5.65;;
58758;SDS011;46777;47.482;19.054;2022-10-16T13:55:47;6.95;;;6.35;;
58758;SDS011;46777;47.482;19.054;2022-10-16T13:58:31;6.72;;;6.03;;
58758;SDS011;46777;47.482;19.054;2022-10-16T14:04:07;7.03;;;6.30;;
58758;SDS011;46777;47.482;19.054;2022-10-16T14:06:52;6.70;;;6.10;;
58758;SDS011;46777;47.482;19.054;2022-10-16T14:09:36;7.07;;;6.40;;
58758;SDS011;46777;47.482;19.054;2022-10-16T14:12:22;6.82;;;6.10;;
58758;SDS011;46777;47.482;19.054;2022-10-16T14:15:15;6.70;;;5.97;;
58758;SDS011;46777;47.482;19.054;2022-10-16T14:18:00;7.40;;;5.97;;
58758;SDS011;46777;47.482;19.054;2022-10-16T14:20:45;6.15;;;5.53;;
58758;SDS011;46777;47.482;19.054;2022-10-16T14:23:30;6.15;;;5.60;;
58758;SDS011;46777;47.482;19.054;2022-10-16T14:26:16;8.18;;;6.25;;
58758;SDS011;46777;47.482;19.054;2022-10-16T14:29:03;8.07;;;6.10;;
58758;SDS011;46777;47.482;19.054;2022-10-16T14:31:56;7.15;;;6.20;;
58758;SDS011;46777;47.482;19.054;2022-10-16T14:34:40;6.88;;;6.18;;
58758;SDS011;46777;47.482;19.054;2022-10-16T14:37:25;7.10;;;6.13;;
58758;SDS011;46777;47.482;19.054;2022-10-16T14:40:13;6.97;;;5.90;;
58758;SDS011;46777;47.482;19.054;2022-10-16T14:42:58;8.27;;;6.43;;
58758;SDS011;46777;47.482;19.054;2022-10-16T14:45:43;7.70;;;7.00;;
58758;SDS011;46777;47.482;19.054;2022-10-16T14:48:35;7.32;;;6.07;;
58758;SDS011;46777;47.482;19.054;2022-10-16T14:51:20;6.80;;;6.10;;
58758;SDS011;46777;47.482;19.054;2022-10-16T14:54:04;7.82;;;6.30;;
58758;SDS011;46777;47.482;19.054;2022-10-16T14:59:37;8.60;;;6.25;;
58758;SDS011;46777;47.482;19.054;2022-10-16T15:02:35;7.38;;;6.50;;
58758;SDS011;46777;47.482;19.054;2022-10-16T15:05:21;7.10;;;6.15;;
58758;SDS011;46777;47.482;19.054;2022-10-16T15:08:07;8.38;;;6.82;;
58758;SDS011;46777;47.482;19.054;2022-10-16T15:10:51;6.90;;;6.20;;
58758;SDS011;46777;47.482;19.054;2022-10-16T15:13:36;8.82;;;6.25;;
58758;SDS011;46777;47.482;19.054;2022-10-16T15:16:20;7.07;;;6.07;;
58758;SDS011;46777;47.482;19.054;2022-10-16T15:19:04;6.85;;;6.03;;
58758;SDS011;46777;47.482;19.054;2022-10-16T15:21:49;7.97;;;6.57;;
58758;SDS011;46777;47.482;19.054;2022-10-16T15:24:33;8.48;;;6.65;;
58758;SDS011;46777;47.482;19.054;2022-10-16T15:27:17;7.57;;;6.78;;
58758;SDS011;46777;47.482;19.054;2022-10-16T15:30:02;7.55;;;6.53;;
58758;SDS011;46777;47.482;19.054;2022-10-16T15:32:46;8.15;;;6.57;;
58758;SDS011;46777;47.482;19.054;2022-10-16T15:35:30;7.68;;;6.50;;
58758;SDS011;46777;47.482;19.054;2022-10-16T15:38:15;8.25;;;6.57;;
58758;SDS011;46777;47.482;19.054;2022-10-16T15:41:00;6.70;;;6.00;;
58758;SDS011;46777;47.482;19.054;2022-10-16T15:43:44;7.43;;;6.47;;
58758;SDS011;46777;47.482;19.054;2022-10-16T15:46:28;8.02;;;6.15;;
58758;SDS011;46777;47.482;19.054;2022-10-16T15:49:14;7.22;;;6.47;;
58758;SDS011;46777;47.482;19.054;2022-10-16T15:51:58;7.68;;;6.85;;
58758;SDS011;46777;47.482;19.054;2022-10-16T15:54:43;9.13;;;7.05;;
58758;SDS011;46777;47.482;19.054;2022-10-16T15:57:28;9.60;;;7.22;;
58758;SDS011;46777;47.482;19.054;2022-10-16T16:00:15;9.80;;;6.97;;
58758;SDS011;46777;47.482;19.054;2022-10-16T16:02:59;10.05;;;7.30;;
58758;SDS011;46777;47.482;19.054;2022-10-16T16:05:43;9.55;;;6.93;;
58758;SDS011;46777;47.482;19.054;2022-10-16T16:08:27;7.70;;;6.90;;
58758;SDS011;46777;47.482;19.054;2022-10-16T16:11:13;10.35;;;6.95;;
58758;SDS011;46777;47.482;19.054;2022-10-16T16:13:58;9.32;;;7.30;;
58758;SDS011;46777;47.482;19.054;2022-10-16T16:16:42;10.93;;;7.90;;
58758;SDS011;46777;47.482;19.054;2022-10-16T16:19:26;9.73;;;8.07;;
58758;SDS011;46777;47.482;19.054;2022-10-16T16:22:11;10.48;;;8.45;;
58758;SDS011;46777;47.482;19.054;2022-10-16T16:24:55;9.65;;;7.97;;
58758;SDS011;46777;47.482;19.054;2022-10-16T16:27:39;12.15;;;8.88;;
58758;SDS011;46777;47.482;19.054;2022-10-16T16:30:23;9.68;;;8.27;;
58758;SDS011;46777;47.482;19.054;2022-10-16T16:33:07;13.70;;;8.63;;
58758;SDS011;46777;47.482;19.054;2022-10-16T16:35:55;12.13;;;8.30;;
58758;SDS011;46777;47.482;19.054;2022-10-16T16:38:40;10.75;;;8.20;;
58758;SDS011;46777;47.482;19.054;2022-10-16T16:41:25;10.85;;;7.95;;
58758;SDS011;46777;47.482;19.054;2022-10-16T16:44:10;10.40;;;8.23;;
58758;SDS011;46777;47.482;19.054;2022-10-16T16:46:54;11.77;;;7.80;;
58758;SDS011;46777;47.482;19.054;2022-10-16T16:49:38;9.55;;;8.02;;
58758;SDS011;46777;47.482;19.054;2022-10-16T16:52:24;11.73;;;8.05;;
58758;SDS011;46777;47.482;19.054;2022-10-16T16:55:08;11.52;;;8.55;;
58758;SDS011;46777;47.482;19.054;2022-10-16T16:57:52;11.25;;;8.15;;
58758;SDS011;46777;47.482;19.054;2022-10-16T17:00:37;11.70;;;8.43;;
58758;SDS011;46777;47.482;19.054;2022-10-16T17:03:29;10.60;;;8.32;;
58758;SDS011;46777;47.482;19.054;2022-10-16T17:06:13;10.98;;;9.05;;
58758;SDS011;46777;47.482;19.054;2022-10-16T17:09:01;9.65;;;7.68;;
58758;SDS011;46777;47.482;19.054;2022-10-16T17:11:46;10.90;;;8.63;;
58758;SDS011;46777;47.482;19.054;2022-10-16T17:14:32;10.45;;;7.78;;
58758;SDS011;46777;47.482;19.054;2022-10-16T17:17:16;10.45;;;8.27;;
58758;SDS011;46777;47.482;19.054;2022-10-16T17:20:00;11.55;;;8.25;;
58758;SDS011;46777;47.482;19.054;2022-10-16T17:22:44;11.68;;;8.20;;
58758;SDS011;46777;47.482;19.054;2022-10-16T17:25:28;11.25;;;7.68;;
58758;SDS011;46777;47.482;19.054;2022-10-16T17:28:13;11.93;;;8.77;;
58758;SDS011;46777;47.482;19.054;2022-10-16T17:31:05;15.73;;;8.73;;
58758;SDS011;46777;47.482;19.054;2022-10-16T17:33:50;9.93;;;7.90;;
58758;SDS011;46777;47.482;19.054;2022-10-16T17:36:35;11.85;;;8.10;;
58758;SDS011;46777;47.482;19.054;2022-10-16T17:39:20;13.93;;;9.10;;
58758;SDS011;46777;47.482;19.054;2022-10-16T17:42:04;12.05;;;9.05;;
58758;SDS011;46777;47.482;19.054;2022-10-16T17:44:49;11.85;;;9.48;;
58758;SDS011;46777;47.482;19.054;2022-10-16T17:47:33;10.50;;;9.40;;
58758;SDS011;46777;47.482;19.054;2022-10-16T17:50:17;11.90;;;9.10;;